Time,TemperatureF,DewpointF,PressureIn,WindDirection,WindDirectionDegrees,WindSpeedMPH,WindSpeedGustMPH,Humidity,HourlyPrecipIn,Conditions,Clouds,dailyrainin,SoftwareType,DateUTC
2013-02-10 00:01:00,15.0,-1.0,-100.00,NNW,330,5.0,19.0,47,0.00,,,-99.99,,2013-02-10 05:01:00,
2013-02-10 00:11:00,15.0,-1.0,-100.00,NW,310,5.0,15.0,48,0.00,,,-99.99,,2013-02-10 05:11:00,
2013-02-10 00:22:00,15.0,-1.0,-100.00,North,350,6.0,13.0,48,0.00,,,-99.99,,2013-02-10 05:22:00,
2013-02-10 00:32:00,15.0,-1.0,-100.00,NW,305,4.0,9.0,49,0.00,,,-99.99,,2013-02-10 05:32:00,
2013-02-10 00:41:00,15.0,-1.0,-100.00,NNW,330,6.0,11.0,48,0.00,,,-99.99,,2013-02-10 05:41:00,
2013-02-10 00:52:00,15.0,-1.0,-100.00,NNW,340,4.0,14.0,48,0.00,,,-99.99,,2013-02-10 05:52:00,
2013-02-10 01:02:00,15.0,-1.0,-100.00,NNW,335,4.0,11.0,48,0.00,,,-99.99,,2013-02-10 06:02:00,
2013-02-10 01:11:00,14.0,-1.0,-100.00,NW,315,3.0,11.0,49,0.00,,,-99.99,,2013-02-10 06:11:00,
2013-02-10 01:21:00,14.0,-1.0,-100.00,WNW,290,2.0,12.0,50,0.00,,,-99.99,,2013-02-10 06:21:00,
2013-02-10 01:32:00,14.0,-1.0,-100.00,NNW,330,2.0,9.0,49,0.00,,,-99.99,,2013-02-10 06:32:00,
2013-02-10 01:42:00,14.0,-1.0,-100.00,NNW,345,2.0,8.0,49,0.00,,,-99.99,,2013-02-10 06:42:00,
2013-02-10 01:51:00,14.0,-1.0,-100.00,West,270,1.0,6.0,50,0.00,,,-99.99,,2013-02-10 06:51:00,
2013-02-10 02:01:00,14.0,-1.0,-100.00,SSE,155,1.0,6.0,50,0.00,,,-99.99,,2013-02-10 07:01:00,
2013-02-10 02:11:00,14.0,-2.0,-100.00,NNW,330,4.0,7.0,50,0.00,,,-99.99,,2013-02-10 07:11:00,
2013-02-10 02:21:00,13.0,-1.0,-100.00,NNE,30,1.0,3.0,50,0.00,,,-99.99,,2013-02-10 07:21:00,
2013-02-10 02:32:00,13.0,-2.0,-100.00,NNW,330,3.0,6.0,51,0.00,,,-99.99,,2013-02-10 07:32:00,
2013-02-10 02:42:00,13.0,-2.0,-100.00,NNW,345,3.0,5.0,50,0.00,,,-99.99,,2013-02-10 07:42:00,
2013-02-10 02:51:00,11.0,-1.0,-100.00,West,265,2.0,4.0,56,0.00,,,-99.99,,2013-02-10 07:51:00,
2013-02-10 03:01:00,12.0,-1.0,-100.00,WNW,285,2.0,7.0,55,0.00,,,-99.99,,2013-02-10 08:01:00,
2013-02-10 03:11:00,13.0,-2.0,-100.00,WNW,300,2.0,9.0,50,0.00,,,-99.99,,2013-02-10 08:11:00,
2013-02-10 03:21:00,13.0,-2.0,-100.00,North,5,1.0,7.0,50,0.00,,,-99.99,,2013-02-10 08:21:00,
2013-02-10 03:32:00,13.0,-2.0,-100.00,South,185,1.0,4.0,51,0.00,,,-99.99,,2013-02-10 08:32:00,
2013-02-10 03:43:00,13.0,-2.0,-100.00,West,260,1.0,5.0,50,0.00,,,-99.99,,2013-02-10 08:43:00,
2013-02-10 03:52:00,12.0,-2.0,-100.00,SSE,150,1.0,6.0,52,0.00,,,-99.99,,2013-02-10 08:52:00,
2013-02-10 04:02:00,13.0,-3.0,-100.00,SW,215,4.0,9.0,49,0.00,,,-99.99,,2013-02-10 09:02:00,
2013-02-10 04:11:00,13.0,-3.0,-100.00,South,170,1.0,7.0,48,0.00,,,-99.99,,2013-02-10 09:11:00,
2013-02-10 04:21:00,13.0,-3.0,-100.00,North,350,2.0,6.0,46,0.00,,,-99.99,,2013-02-10 09:21:00,
2013-02-10 04:32:00,13.0,-3.0,-100.00,South,175,1.0,7.0,48,0.00,,,-99.99,,2013-02-10 09:32:00,
2013-02-10 04:41:00,14.0,-3.0,-100.00,North,0,3.0,12.0,46,0.00,,,-99.99,,2013-02-10 09:41:00,
2013-02-10 04:51:00,14.0,-3.0,-100.00,North,355,4.0,10.0,46,0.00,,,-99.99,,2013-02-10 09:51:00,
2013-02-10 05:01:00,13.0,-3.0,-100.00,North,10,1.0,7.0,46,0.00,,,-99.99,,2013-02-10 10:01:00,
2013-02-10 05:11:00,13.0,-3.0,-100.00,NNW,335,2.0,7.0,46,0.00,,,-99.99,,2013-02-10 10:11:00,
2013-02-10 05:21:00,13.0,-3.0,-100.00,SE,130,1.0,4.0,47,0.00,,,-99.99,,2013-02-10 10:21:00,
2013-02-10 05:31:00,13.0,-3.0,-100.00,North,355,1.0,9.0,47,0.00,,,-99.99,,2013-02-10 10:31:00,
2013-02-10 05:42:00,13.0,-3.0,-100.00,East,95,2.0,9.0,47,0.00,,,-99.99,,2013-02-10 10:42:00,
2013-02-10 05:51:00,13.0,-3.0,-100.00,NNE,30,1.0,6.0,47,0.00,,,-99.99,,2013-02-10 10:51:00,
2013-02-10 06:01:00,12.0,-3.0,-100.00,North,350,0.0,5.0,51,0.00,,,-99.99,,2013-02-10 11:01:00,
2013-02-10 06:11:00,11.0,-2.0,-100.00,West,260,1.0,4.0,54,0.00,,,-99.99,,2013-02-10 11:11:00,
2013-02-10 06:22:00,11.0,-3.0,-100.00,ESE,105,2.0,4.0,53,0.00,,,-99.99,,2013-02-10 11:22:00,
2013-02-10 06:32:00,11.0,-3.0,-100.00,NNE,20,3.0,4.0,52,0.00,,,-99.99,,2013-02-10 11:32:00,
2013-02-10 06:42:00,11.0,-3.0,-100.00,NNW,340,2.0,6.0,54,0.00,,,-99.99,,2013-02-10 11:42:00,
2013-02-10 06:52:00,11.0,-3.0,-100.00,NNW,335,2.0,6.0,53,0.00,,,-99.99,,2013-02-10 11:52:00,
2013-02-10 07:02:00,11.0,-4.0,-100.00,NNW,340,3.0,7.0,50,0.00,,,-99.99,,2013-02-10 12:02:00,
2013-02-10 07:12:00,12.0,-4.0,-100.00,NW,320,2.0,7.0,48,0.00,,,-99.99,,2013-02-10 12:12:00,
2013-02-10 07:21:00,13.0,-3.0,-100.00,NNW,340,1.0,6.0,47,0.00,,,-99.99,,2013-02-10 12:21:00,
2013-02-10 07:32:00,14.0,-4.0,-100.00,NNW,330,3.0,9.0,44,0.00,,,-99.99,,2013-02-10 12:32:00,
2013-02-10 07:42:00,14.0,-3.0,-100.00,North,355,2.0,9.0,46,0.00,,,-99.99,,2013-02-10 12:42:00,
2013-02-10 07:52:00,15.0,-3.0,-100.00,North,0,2.0,9.0,45,0.00,,,-99.99,,2013-02-10 12:52:00,
2013-02-10 08:02:00,16.0,-2.0,-100.00,North,5,1.0,6.0,43,0.00,,,-99.99,,2013-02-10 13:02:00,
2013-02-10 08:11:00,16.0,-3.0,-100.00,WSW,255,1.0,6.0,41,0.00,,,-99.99,,2013-02-10 13:11:00,
2013-02-10 08:21:00,16.0,-3.0,-100.00,NNW,335,2.0,6.0,41,0.00,,,-99.99,,2013-02-10 13:21:00,
2013-02-10 08:31:00,17.0,-4.0,-100.00,North,350,4.0,7.0,38,0.00,,,-99.99,,2013-02-10 13:31:00,
2013-02-10 08:41:00,17.0,-4.0,-100.00,NW,315,4.0,10.0,38,0.00,,,-99.99,,2013-02-10 13:41:00,
2013-02-10 08:51:00,18.0,-3.0,-100.00,North,350,3.0,10.0,37,0.00,,,-99.99,,2013-02-10 13:51:00,
2013-02-10 09:02:00,19.0,-4.0,-100.00,NNW,345,4.0,9.0,35,0.00,,,-99.99,,2013-02-10 14:02:00,
2013-02-10 09:11:00,20.0,-4.0,-100.00,NNW,340,4.0,11.0,33,0.00,,,-99.99,,2013-02-10 14:11:00,
2013-02-10 09:21:00,21.0,-4.0,-100.00,NNW,330,7.0,12.0,32,0.00,,,-99.99,,2013-02-10 14:21:00,
2013-02-10 09:32:00,22.0,-4.0,-100.00,NNW,340,5.0,12.0,31,0.00,,,-99.99,,2013-02-10 14:32:00,
2013-02-10 09:41:00,24.0,-3.0,-100.00,WNW,285,2.0,7.0,30,0.00,,,-99.99,,2013-02-10 14:41:00,
2013-02-10 09:52:00,24.0,-4.0,-100.00,North,5,2.0,9.0,28,0.00,,,-99.99,,2013-02-10 14:52:00,
2013-02-10 10:02:00,25.0,-3.0,-100.00,NW,315,5.0,9.0,28,0.00,,,-99.99,,2013-02-10 15:02:00,
2013-02-10 10:11:00,25.0,-4.0,-100.00,NNW,340,7.0,12.0,28,0.00,,,-99.99,,2013-02-10 15:11:00,
2013-02-10 10:22:00,26.0,-3.0,-100.00,NNW,345,4.0,12.0,28,0.00,,,-99.99,,2013-02-10 15:22:00,
2013-02-10 10:32:00,26.0,-3.0,-100.00,NNW,345,4.0,12.0,28,0.00,,,-99.99,,2013-02-10 15:32:00,
2013-02-10 10:42:00,27.0,-4.0,-100.00,North,350,6.0,14.0,25,0.00,,,-99.99,,2013-02-10 15:42:00,
2013-02-10 10:52:00,28.0,-2.0,-100.00,West,280,2.0,14.0,25,0.00,,,-99.99,,2013-02-10 15:52:00,
2013-02-10 11:02:00,28.0,-3.0,-100.00,North,0,7.0,12.0,25,0.00,,,-99.99,,2013-02-10 16:02:00,
2013-02-10 11:12:00,29.0,-2.0,-100.00,NNW,330,4.0,9.0,25,0.00,,,-99.99,,2013-02-10 16:12:00,
2013-02-10 11:22:00,28.0,-5.0,-100.00,NNW,330,9.0,14.0,23,0.00,,,-99.99,,2013-02-10 16:22:00,
2013-02-10 11:32:00,31.0,-2.0,-100.00,NW,315,3.0,11.0,23,0.00,,,-99.99,,2013-02-10 16:32:00,
2013-02-10 11:42:00,30.0,-3.0,-100.00,NNW,345,3.0,9.0,23,0.00,,,-99.99,,2013-02-10 16:42:00,
2013-02-10 11:52:00,31.0,-1.0,-100.00,NNW,330,4.0,12.0,24,0.00,,,-99.99,,2013-02-10 16:52:00,
2013-02-10 12:02:00,31.0,-2.0,-100.00,WNW,290,4.0,14.0,23,0.00,,,-99.99,,2013-02-10 17:02:00,
2013-02-10 12:11:00,32.0,-3.0,-100.00,NNW,330,4.0,9.0,22,0.00,,,-99.99,,2013-02-10 17:11:00,
2013-02-10 12:22:00,31.0,-1.0,-100.00,North,350,5.0,12.0,24,0.00,,,-99.99,,2013-02-10 17:22:00,
2013-02-10 12:32:00,32.0,-1.0,-100.00,North,350,3.0,8.0,23,0.00,,,-99.99,,2013-02-10 17:32:00,
2013-02-10 12:42:00,33.0,0.0,-100.00,North,0,4.0,8.0,24,0.00,,,-99.99,,2013-02-10 17:42:00,
2013-02-10 12:52:00,33.0,-2.0,-100.00,NNW,335,3.0,7.0,22,0.00,,,-99.99,,2013-02-10 17:52:00,
2013-02-10 13:02:00,34.0,1.0,-100.00,NNW,340,3.0,6.0,23,0.00,,,-99.99,,2013-02-10 18:02:00,
2013-02-10 13:12:00,35.0,-1.0,-100.00,West,270,3.0,7.0,21,0.00,,,-99.99,,2013-02-10 18:12:00,
2013-02-10 13:22:00,34.0,-1.0,-100.00,NNW,330,5.0,9.0,22,0.00,,,-99.99,,2013-02-10 18:22:00,
2013-02-10 13:32:00,35.0,-1.0,-100.00,North,5,3.0,7.0,20,0.00,,,-99.99,,2013-02-10 18:32:00,
2013-02-10 13:42:00,35.0,-2.0,-100.00,NNW,340,6.0,7.0,20,0.00,,,-99.99,,2013-02-10 18:42:00,
2013-02-10 13:52:00,36.0,0.0,-100.00,NNE,25,4.0,7.0,21,0.00,,,-99.99,,2013-02-10 18:52:00,
2013-02-10 14:02:00,36.0,0.0,-100.00,NNW,330,4.0,8.0,21,0.00,,,-99.99,,2013-02-10 19:02:00,
2013-02-10 14:12:00,36.0,1.0,-100.00,NNW,340,4.0,8.0,21,0.00,,,-99.99,,2013-02-10 19:12:00,
2013-02-10 14:22:00,37.0,2.0,-100.00,North,0,1.0,6.0,22,0.00,,,-99.99,,2013-02-10 19:22:00,
2013-02-10 14:32:00,37.0,0.0,-100.00,North,5,4.0,7.0,20,0.00,,,-99.99,,2013-02-10 19:32:00,
2013-02-10 14:42:00,37.0,-1.0,-100.00,NNW,345,3.0,7.0,18,0.00,,,-99.99,,2013-02-10 19:42:00,
2013-02-10 14:52:00,38.0,2.0,-100.00,NW,325,4.0,6.0,22,0.00,,,-99.99,,2013-02-10 19:52:00,
2013-02-10 15:02:00,38.0,0.0,-100.00,North,350,4.0,7.0,20,0.00,,,-99.99,,2013-02-10 20:02:00,
2013-02-10 15:11:00,37.0,2.0,-100.00,North,10,3.0,8.0,22,0.00,,,-99.99,,2013-02-10 20:11:00,
2013-02-10 15:22:00,38.0,-1.0,-100.00,NNW,330,4.0,9.0,18,0.00,,,-99.99,,2013-02-10 20:22:00,
2013-02-10 15:32:00,38.0,0.0,-100.00,WNW,290,2.0,7.0,19,0.00,,,-99.99,,2013-02-10 20:32:00,
2013-02-10 15:42:00,37.0,-1.0,-100.00,NNW,335,4.0,8.0,19,0.00,,,-99.99,,2013-02-10 20:42:00,
2013-02-10 15:52:00,38.0,2.0,-100.00,West,280,2.0,5.0,20,0.00,,,-99.99,,2013-02-10 20:52:00,
2013-02-10 16:02:00,37.0,2.0,-100.00,NNW,345,2.0,4.0,22,0.00,,,-99.99,,2013-02-10 21:02:00,
2013-02-10 16:11:00,37.0,1.0,-100.00,WSW,255,1.0,6.0,21,0.00,,,-99.99,,2013-02-10 21:11:00,
2013-02-10 16:22:00,37.0,1.0,-100.00,NW,320,2.0,5.0,20,0.00,,,-99.99,,2013-02-10 21:22:00,
2013-02-10 16:32:00,37.0,-1.0,-100.00,NNW,330,2.0,4.0,19,0.00,,,-99.99,,2013-02-10 21:32:00,
2013-02-10 16:42:00,36.0,5.0,-100.00,NW,315,2.0,4.0,26,0.00,,,-99.99,,2013-02-10 21:42:00,
2013-02-10 16:52:00,35.0,4.0,-100.00,NNW,330,2.0,6.0,26,0.00,,,-99.99,,2013-02-10 21:52:00,
2013-02-10 17:02:00,34.0,5.0,-100.00,NNW,330,2.0,4.0,29,0.00,,,-99.99,,2013-02-10 22:02:00,
2013-02-10 17:11:00,33.0,6.0,-100.00,NNW,340,2.0,4.0,30,0.00,,,-99.99,,2013-02-10 22:11:00,
2013-02-10 17:22:00,31.0,8.0,-100.00,WSW,250,1.0,4.0,38,0.00,,,-99.99,,2013-02-10 22:22:00,
2013-02-10 17:32:00,29.0,8.0,-100.00,SW,220,0.0,1.0,42,0.00,,,-99.99,,2013-02-10 22:32:00,
2013-02-10 17:42:00,27.0,11.0,-100.00,WSW,240,0.0,1.0,49,0.00,,,-99.99,,2013-02-10 22:42:00,
2013-02-10 17:52:00,26.0,11.0,-100.00,WSW,240,0.0,1.0,53,0.00,,,-99.99,,2013-02-10 22:52:00,
2013-02-10 18:02:00,28.0,8.0,-100.00,NNW,330,2.0,4.0,43,0.00,,,-99.99,,2013-02-10 23:02:00,
2013-02-10 18:11:00,27.0,8.0,-100.00,North,5,1.0,4.0,44,0.00,,,-99.99,,2013-02-10 23:11:00,
2013-02-10 18:22:00,26.0,8.0,-100.00,NE,45,1.0,4.0,44,0.00,,,-99.99,,2013-02-10 23:22:00,
2013-02-10 18:32:00,26.0,8.0,-100.00,North,355,1.0,3.0,46,0.00,,,-99.99,,2013-02-10 23:32:00,
2013-02-10 18:42:00,26.0,8.0,-100.00,NNW,345,1.0,4.0,46,0.00,,,-99.99,,2013-02-10 23:42:00,
2013-02-10 18:52:00,24.0,9.0,-100.00,NNE,25,1.0,3.0,50,0.00,,,-99.99,,2013-02-10 23:52:00,
2013-02-10 19:02:00,23.0,9.0,-100.00,SW,235,1.0,2.0,55,0.00,,,-99.99,,2013-02-11 00:02:00,
2013-02-10 19:11:00,22.0,9.0,-100.00,WSW,245,1.0,2.0,56,0.00,,,-99.99,,2013-02-11 00:11:00,
2013-02-10 19:22:00,20.0,10.0,-100.00,South,185,1.0,1.0,65,0.00,,,-99.99,,2013-02-11 00:22:00,
2013-02-10 19:32:00,18.0,10.0,-100.00,South,190,0.0,1.0,68,0.00,,,-99.99,,2013-02-11 00:32:00,
2013-02-10 19:42:00,20.0,10.0,-100.00,North,350,2.0,4.0,64,0.00,,,-99.99,,2013-02-11 00:42:00,
2013-02-10 19:51:00,20.0,10.0,-100.00,NNW,330,2.0,4.0,63,0.00,,,-99.99,,2013-02-11 00:51:00,
2013-02-10 20:01:00,20.0,9.0,-100.00,NW,325,1.0,4.0,60,0.00,,,-99.99,,2013-02-11 01:01:00,
2013-02-10 20:11:00,20.0,9.0,-100.00,North,350,1.0,4.0,62,0.00,,,-99.99,,2013-02-11 01:11:00,
2013-02-10 20:21:00,18.0,9.0,-100.00,WNW,285,1.0,2.0,65,0.00,,,-99.99,,2013-02-11 01:21:00,
2013-02-10 20:32:00,17.0,9.0,-100.00,SSW,195,1.0,1.0,69,0.00,,,-99.99,,2013-02-11 01:32:00,
2013-02-10 20:42:00,16.0,9.0,-100.00,South,180,0.0,1.0,71,0.00,,,-99.99,,2013-02-11 01:42:00,
2013-02-10 20:52:00,16.0,9.0,-100.00,SSE,160,0.0,1.0,72,0.00,,,-99.99,,2013-02-11 01:52:00,
2013-02-10 21:01:00,16.0,9.0,-100.00,WNW,285,0.0,1.0,73,0.00,,,-99.99,,2013-02-11 02:01:00,
2013-02-10 21:11:00,15.0,8.0,-100.00,South,175,0.0,1.0,73,0.00,,,-99.99,,2013-02-11 02:11:00,
2013-02-10 21:21:00,14.0,7.0,-100.00,SSW,205,0.0,1.0,73,0.00,,,-99.99,,2013-02-11 02:21:00,
2013-02-10 21:32:00,15.0,8.0,-100.00,NNW,340,1.0,2.0,74,0.00,,,-99.99,,2013-02-11 02:32:00,
2013-02-10 21:42:00,14.0,8.0,-100.00,NNW,345,1.0,2.0,75,0.00,,,-99.99,,2013-02-11 02:42:00,
2013-02-10 21:52:00,14.0,8.0,-100.00,NE,40,0.0,2.0,74,0.00,,,-99.99,,2013-02-11 02:52:00,
2013-02-10 22:02:00,14.0,7.0,-100.00,NE,40,1.0,1.0,74,0.00,,,-99.99,,2013-02-11 03:02:00,
2013-02-10 22:11:00,14.0,7.0,-100.00,NNW,340,1.0,1.0,75,0.00,,,-99.99,,2013-02-11 03:11:00,
2013-02-10 22:21:00,13.0,7.0,-100.00,NNW,330,1.0,2.0,75,0.00,,,-99.99,,2013-02-11 03:21:00,
2013-02-10 22:32:00,11.0,5.0,-100.00,South,185,1.0,1.0,75,0.00,,,-99.99,,2013-02-11 03:32:00,
2013-02-10 22:42:00,12.0,6.0,-100.00,SSE,165,1.0,2.0,76,0.00,,,-99.99,,2013-02-11 03:42:00,
2013-02-10 22:52:00,12.0,6.0,-100.00,NNW,340,2.0,3.0,76,0.00,,,-99.99,,2013-02-11 03:52:00,
2013-02-10 23:01:00,12.0,6.0,-100.00,ENE,60,0.0,2.0,76,0.00,,,-99.99,,2013-02-11 04:01:00,
2013-02-10 23:11:00,12.0,6.0,-100.00,East,100,1.0,2.0,76,0.00,,,-99.99,,2013-02-11 04:11:00,
2013-02-10 23:21:00,11.0,6.0,-100.00,NE,35,1.0,2.0,77,0.00,,,-99.99,,2013-02-11 04:21:00,
2013-02-10 23:32:00,10.0,5.0,-100.00,NNE,25,1.0,2.0,77,0.00,,,-99.99,,2013-02-11 04:32:00,
2013-02-10 23:42:00,11.0,5.0,-100.00,NNE,20,0.0,1.0,77,0.00,,,-99.99,,2013-02-11 04:42:00,
2013-02-10 23:51:00,9.0,4.0,-100.00,South,190,0.0,1.0,77,0.00,,,-99.99,,2013-02-11 04:51:00,